createdAt,value
2023-04-09T00:00:14.819Z,32.97
2023-04-09T00:02:43.686Z,33.57
2023-04-09T00:05:12.520Z,32.27
2023-04-09T00:07:42.594Z,30.87
2023-04-09T00:10:13.712Z,32.83
2023-04-09T00:12:42.152Z,33.93
2023-04-09T00:15:15.086Z,34.50
2023-04-09T00:17:49.546Z,34.40
2023-04-09T00:20:18.092Z,37.30
2023-04-09T00:22:46.731Z,31.83
2023-04-09T00:25:16.628Z,34.97
2023-04-09T00:27:45.071Z,32.33
2023-04-09T00:30:13.681Z,32.63
2023-04-09T00:32:42.119Z,38.73
2023-04-09T00:35:11.147Z,39.60
2023-04-09T00:37:39.478Z,35.67
2023-04-09T00:40:08.653Z,39.37
2023-04-09T00:42:38.541Z,36.10
2023-04-09T00:45:07.366Z,36.77
2023-04-09T00:47:36.146Z,36.50
2023-04-09T00:50:04.974Z,36.37
2023-04-09T00:52:33.465Z,34.87
2023-04-09T00:55:02.549Z,37.30
2023-04-09T00:57:31.029Z,33.47
2023-04-09T01:00:00.984Z,36.23
2023-04-09T01:02:31.116Z,34.87
2023-04-09T01:04:59.748Z,34.17
2023-04-09T01:07:30.397Z,36.00
2023-04-09T01:09:59.725Z,38.13
2023-04-09T01:12:31.820Z,34.83
2023-04-09T01:15:04.408Z,36.57
2023-04-09T01:17:33.170Z,36.00
2023-04-09T01:20:03.952Z,34.20
2023-04-09T01:22:34.584Z,39.20
2023-04-09T01:25:05.602Z,39.17
2023-04-09T01:27:36.657Z,40.93
2023-04-09T01:30:07.035Z,34.17
2023-04-09T01:32:35.756Z,36.87
2023-04-09T01:35:04.179Z,37.87
2023-04-09T01:37:32.592Z,34.67
2023-04-09T01:40:01.678Z,46.43
2023-04-09T01:42:30.304Z,37.23
2023-04-09T01:44:58.840Z,37.37
2023-04-09T01:47:28.816Z,39.30
2023-04-09T01:49:57.285Z,37.13
2023-04-09T01:52:25.955Z,35.77
2023-04-09T01:54:54.524Z,39.00
2023-04-09T01:57:22.956Z,39.87
2023-04-09T01:59:51.351Z,38.23
2023-04-09T02:02:20.631Z,40.23
2023-04-09T02:04:50.840Z,40.83
2023-04-09T02:07:20.740Z,38.13
2023-04-09T02:09:49.726Z,37.40
2023-04-09T02:12:18.471Z,39.97
2023-04-09T02:14:47.596Z,39.73
2023-04-09T02:17:15.942Z,42.37
2023-04-09T02:19:44.703Z,39.73
2023-04-09T02:22:14.689Z,40.00
2023-04-09T02:24:43.331Z,42.60
2023-04-09T02:27:11.842Z,44.97
2023-04-09T02:29:40.523Z,47.10
2023-04-09T02:32:10.244Z,42.57
2023-04-09T02:34:38.768Z,47.57
2023-04-09T02:37:07.534Z,47.43
2023-04-09T02:39:37.289Z,44.67
2023-04-09T02:42:07.893Z,46.67
2023-04-09T02:44:36.362Z,49.13
2023-04-09T02:47:04.778Z,46.23
2023-04-09T02:49:33.173Z,46.90
2023-04-09T02:52:01.790Z,44.90
2023-04-09T02:54:30.188Z,44.60
2023-04-09T02:57:00.033Z,46.50
2023-04-09T02:59:28.457Z,46.77
2023-04-09T03:01:57.210Z,48.03
2023-04-09T03:04:25.773Z,47.73
2023-04-09T03:06:54.271Z,48.23
2023-04-09T03:09:22.646Z,47.27
2023-04-09T03:11:51.069Z,48.97
2023-04-09T03:14:20.921Z,48.53
2023-04-09T03:16:49.351Z,48.07
2023-04-09T03:19:17.845Z,46.53
2023-04-09T03:21:46.424Z,50.60
2023-04-09T03:24:14.973Z,50.13
2023-04-09T03:26:43.324Z,51.97
2023-04-09T03:29:11.715Z,55.50
2023-04-09T03:31:41.472Z,48.50
2023-04-09T03:34:10.152Z,49.37
2023-04-09T03:36:38.523Z,49.33
2023-04-09T03:39:06.944Z,48.60
2023-04-09T03:41:35.441Z,47.93
2023-04-09T03:44:03.799Z,52.43
2023-04-09T03:46:32.246Z,48.43
2023-04-09T03:49:02.168Z,48.73
2023-04-09T03:51:30.552Z,48.53
2023-04-09T03:53:58.897Z,50.43
2023-04-09T03:56:27.304Z,48.10
2023-04-09T03:58:55.799Z,50.50
2023-04-09T04:01:24.280Z,48.47
2023-04-09T04:03:52.856Z,47.63
2023-04-09T04:06:22.762Z,47.33
2023-04-09T04:08:51.817Z,50.60
2023-04-09T04:11:20.479Z,45.10
2023-04-09T04:13:48.991Z,45.87
2023-04-09T04:16:17.506Z,46.93
2023-04-09T04:18:46.076Z,41.03
2023-04-09T04:21:15.209Z,44.10
2023-04-09T04:23:44.989Z,45.37
2023-04-09T04:26:13.561Z,44.43
2023-04-09T04:28:42.002Z,38.93
2023-04-09T04:31:10.996Z,44.17
2023-04-09T04:33:39.592Z,40.00
2023-04-09T04:36:08.347Z,45.53
2023-04-09T04:38:36.780Z,43.90
2023-04-09T04:41:07.967Z,42.23
2023-04-09T04:43:36.442Z,46.00
2023-04-09T04:46:06.271Z,41.13
2023-04-09T04:48:34.779Z,41.10
2023-04-09T04:51:03.439Z,42.53
2023-04-09T04:53:31.817Z,41.40
2023-04-09T04:56:00.445Z,42.93
2023-04-09T04:58:30.896Z,44.03
2023-04-09T05:01:00.578Z,41.03
2023-04-09T05:03:29.185Z,39.73
2023-04-09T05:05:57.612Z,40.60
2023-04-09T05:08:26.044Z,42.23
2023-04-09T05:10:56.127Z,41.73
2023-04-09T05:13:24.862Z,40.57
2023-04-09T05:15:54.730Z,39.30
2023-04-09T05:18:23.139Z,41.90
2023-04-09T05:20:51.569Z,40.80
2023-04-09T05:23:20.028Z,39.80
2023-04-09T05:25:50.767Z,42.30
2023-04-09T05:28:19.217Z,40.67
2023-04-09T05:30:48.304Z,41.47
2023-04-09T05:33:18.108Z,42.77
2023-04-09T05:35:46.736Z,39.97
2023-04-09T05:38:15.176Z,40.73
2023-04-09T05:40:45.173Z,39.63
2023-04-09T05:43:13.752Z,43.57
2023-04-09T05:45:42.597Z,43.67
2023-04-09T05:48:11.047Z,43.17
2023-04-09T05:50:53.401Z,43.87
2023-04-09T05:53:23.533Z,47.97
2023-04-09T05:55:51.917Z,42.70
2023-04-09T05:58:20.525Z,44.27
2023-04-09T06:00:51.500Z,47.33
2023-04-09T06:03:20.809Z,41.87
2023-04-09T06:05:50.738Z,41.77
2023-04-09T06:08:19.230Z,43.07
2023-04-09T06:10:47.635Z,44.67
2023-04-09T06:13:16.177Z,48.37
2023-04-09T06:15:44.783Z,42.63
2023-04-09T06:18:13.383Z,41.10
2023-04-09T06:20:41.828Z,40.63
2023-04-09T06:23:11.888Z,42.37
2023-04-09T06:25:40.207Z,41.90
2023-04-09T06:28:08.827Z,40.80
2023-04-09T06:30:38.272Z,45.10
2023-04-09T06:33:06.964Z,43.57
2023-04-09T06:35:35.807Z,42.53
2023-04-09T06:38:04.362Z,42.77
2023-04-09T06:40:35.109Z,42.53
2023-04-09T06:43:03.573Z,43.57
2023-04-09T06:45:32.856Z,44.13
2023-04-09T06:48:01.276Z,45.17
2023-04-09T06:50:29.712Z,42.73
2023-04-09T06:52:58.833Z,44.17
2023-04-09T06:55:27.946Z,44.17
2023-04-09T06:57:57.924Z,42.70
2023-04-09T07:00:27.100Z,44.47
2023-04-09T07:02:55.934Z,41.63
2023-04-09T07:05:24.591Z,42.07
2023-04-09T07:07:52.928Z,41.00
2023-04-09T07:10:23.386Z,45.03
2023-04-09T07:12:52.089Z,44.70
2023-04-09T07:15:22.171Z,45.17
2023-04-09T07:17:50.793Z,47.73
2023-04-09T07:20:19.369Z,49.60
2023-04-09T07:22:47.942Z,48.00
2023-04-09T07:25:16.508Z,50.00
2023-04-09T07:27:47.111Z,48.17
2023-04-09T07:30:15.616Z,50.40
2023-04-09T07:32:45.713Z,46.23
2023-04-09T07:35:14.140Z,45.37
2023-04-09T07:37:42.689Z,49.37
2023-04-09T07:40:11.299Z,47.27
2023-04-09T07:42:40.010Z,53.97
2023-04-09T07:45:09.062Z,47.83
2023-04-09T07:47:37.574Z,53.40
2023-04-09T07:50:08.035Z,52.83
2023-04-09T07:52:36.628Z,53.20
2023-04-09T07:55:05.233Z,52.37
2023-04-09T07:57:33.716Z,55.27
2023-04-09T08:00:02.495Z,56.67
2023-04-09T08:02:31.290Z,55.80
2023-04-09T08:05:00.235Z,52.40
2023-04-09T08:07:30.144Z,57.10
2023-04-09T08:09:58.899Z,53.40
2023-04-09T08:12:27.286Z,56.00
2023-04-09T08:14:56.145Z,65.53
2023-04-09T08:17:24.757Z,66.63
2023-04-09T08:19:53.395Z,64.47
2023-04-09T08:22:21.817Z,64.40
2023-04-09T08:24:56.297Z,65.37
2023-04-09T08:27:24.929Z,69.97
2023-04-09T08:29:53.523Z,63.43
2023-04-09T08:32:22.273Z,68.33
2023-04-09T08:34:50.743Z,65.70
2023-04-09T08:37:19.177Z,71.43
2023-04-09T08:39:47.732Z,67.47
2023-04-09T08:42:17.483Z,66.07
2023-04-09T08:44:46.007Z,67.03
2023-04-09T08:47:14.335Z,66.30
2023-04-09T08:49:42.768Z,64.27
2023-04-09T08:52:11.384Z,66.20
2023-04-09T08:54:39.914Z,68.17
2023-04-09T08:57:08.365Z,64.83
2023-04-09T08:59:38.146Z,63.87
2023-04-09T09:02:09.731Z,67.17
2023-04-09T09:04:47.837Z,65.33
2023-04-09T09:07:16.457Z,63.70
2023-04-09T09:09:54.447Z,67.07
2023-04-09T09:12:39.135Z,62.47
2023-04-09T09:15:27.087Z,64.23
2023-04-09T09:17:57.488Z,66.23
2023-04-09T09:20:29.363Z,64.60
2023-04-09T09:22:58.028Z,60.87
2023-04-09T09:25:26.879Z,65.67
2023-04-09T09:27:57.120Z,63.70
2023-04-09T09:30:26.051Z,63.50
2023-04-09T09:32:55.281Z,65.83
2023-04-09T09:35:25.625Z,62.97
2023-04-09T09:38:03.846Z,64.83
2023-04-09T09:40:32.375Z,63.90
2023-04-09T09:43:01.018Z,60.50
2023-04-09T09:45:29.480Z,61.17
2023-04-09T09:47:57.872Z,62.50
2023-04-09T09:50:28.580Z,60.33
2023-04-09T09:52:59.841Z,60.50
2023-04-09T09:55:28.322Z,58.60
2023-04-09T09:57:56.744Z,56.80
2023-04-09T10:00:25.660Z,54.33
2023-04-09T10:02:56.752Z,58.40
2023-04-09T10:05:27.766Z,59.27
2023-04-09T10:07:58.814Z,58.33
2023-04-09T10:10:27.372Z,58.67
2023-04-09T10:12:56.333Z,58.17
2023-04-09T10:15:24.968Z,65.60
2023-04-09T10:17:53.646Z,63.10
2023-04-09T10:20:27.211Z,60.77
2023-04-09T10:22:55.682Z,68.47
2023-04-09T10:25:26.422Z,62.03
2023-04-09T10:28:01.320Z,64.07
2023-04-09T10:30:38.102Z,65.30
2023-04-09T10:33:12.715Z,64.00
2023-04-09T10:35:41.169Z,65.83
2023-04-09T10:38:10.827Z,66.20
2023-04-09T10:40:49.621Z,64.37
2023-04-09T10:43:20.036Z,63.23
2023-04-09T10:45:53.261Z,64.17
2023-04-09T10:48:21.843Z,62.47
2023-04-09T10:50:51.178Z,63.57
2023-04-09T10:53:23.810Z,61.73
2023-04-09T10:55:53.930Z,62.73
2023-04-09T10:58:22.345Z,62.57
2023-04-09T11:00:51.344Z,63.33
2023-04-09T11:03:27.417Z,64.13
2023-04-09T11:05:57.859Z,60.80
2023-04-09T11:08:27.532Z,58.93
2023-04-09T11:10:58.493Z,59.03
2023-04-09T11:13:26.879Z,56.10
2023-04-09T11:15:56.077Z,58.37
2023-04-09T11:18:24.530Z,55.67
2023-04-09T11:20:56.150Z,55.43
2023-04-09T11:23:24.651Z,61.27
2023-04-09T11:25:53.379Z,55.47
2023-04-09T11:28:23.322Z,56.40
2023-04-09T11:30:52.581Z,57.97
2023-04-09T11:33:21.044Z,58.73
2023-04-09T11:35:49.686Z,59.20
2023-04-09T11:38:18.118Z,55.73
2023-04-09T11:40:49.237Z,54.53
2023-04-09T11:43:18.489Z,52.87
2023-04-09T11:45:48.924Z,52.37
2023-04-09T11:48:18.824Z,53.73
2023-04-09T11:50:47.570Z,55.17
2023-04-09T11:53:19.930Z,53.07
2023-04-09T11:55:49.132Z,54.57
2023-04-09T11:58:17.637Z,50.93
2023-04-09T12:00:46.657Z,53.03
2023-04-09T12:03:17.314Z,51.40
2023-04-09T12:05:50.207Z,48.63
2023-04-09T12:08:19.522Z,46.23
2023-04-09T12:10:47.931Z,48.37
2023-04-09T12:13:16.779Z,45.77
2023-04-09T12:15:45.539Z,47.07
2023-04-09T12:18:14.532Z,46.77
2023-04-09T12:20:48.104Z,43.90
2023-04-09T12:23:16.500Z,47.33
2023-04-09T12:25:45.293Z,44.13
2023-04-09T12:28:16.293Z,44.60
2023-04-09T12:30:46.350Z,41.30
2023-04-09T12:33:14.772Z,42.53
2023-04-09T12:35:45.159Z,40.97
2023-04-09T12:38:14.359Z,41.53
2023-04-09T12:40:43.345Z,43.13
2023-04-09T12:43:11.826Z,44.97
2023-04-09T12:45:40.301Z,43.47
2023-04-09T12:48:08.856Z,40.23
2023-04-09T12:50:37.634Z,43.97
2023-04-09T12:53:07.419Z,40.43
2023-04-09T12:55:36.171Z,42.83
2023-04-09T12:58:11.123Z,40.63
2023-04-09T13:00:39.587Z,42.13
2023-04-09T13:03:08.264Z,41.00
2023-04-09T13:05:36.813Z,39.97
2023-04-09T13:08:05.326Z,38.63
2023-04-09T13:10:35.313Z,38.93
2023-04-09T13:13:03.913Z,37.00
2023-04-09T13:15:32.514Z,38.93
2023-04-09T13:18:00.928Z,37.57
2023-04-09T13:20:29.640Z,37.23
2023-04-09T13:22:57.987Z,34.53
2023-04-09T13:25:26.482Z,37.13
2023-04-09T13:27:56.390Z,36.33
2023-04-09T13:30:25.926Z,33.97
2023-04-09T13:32:55.128Z,32.37
2023-04-09T13:35:24.708Z,36.90
2023-04-09T13:37:53.073Z,32.97
2023-04-09T13:40:21.585Z,34.70
2023-04-09T13:42:50.603Z,35.40
2023-04-09T13:45:21.112Z,33.30
2023-04-09T13:47:50.081Z,33.43
2023-04-09T13:50:21.925Z,33.83
2023-04-09T13:52:50.553Z,31.97
2023-04-09T13:55:19.185Z,31.77
2023-04-09T13:57:47.555Z,30.10
2023-04-09T14:00:16.388Z,32.73
2023-04-09T14:02:46.673Z,30.50
2023-04-09T14:05:15.197Z,32.97
2023-04-09T14:07:43.626Z,27.83
2023-04-09T14:10:12.678Z,29.83
2023-04-09T14:12:41.646Z,31.43
2023-04-09T14:15:11.268Z,26.40
2023-04-09T14:17:39.985Z,28.80
2023-04-09T14:20:10.545Z,28.13
2023-04-09T14:22:38.906Z,28.60
2023-04-09T14:25:08.162Z,28.83
2023-04-09T14:27:36.781Z,27.17
2023-04-09T14:30:06.099Z,30.70
2023-04-09T14:32:34.784Z,24.97
2023-04-09T14:35:03.249Z,26.20
2023-04-09T14:37:33.023Z,26.37
2023-04-09T14:40:01.958Z,23.83
2023-04-09T14:42:30.666Z,26.93
2023-04-09T14:44:59.128Z,23.70
2023-04-09T14:47:29.366Z,21.90
2023-04-09T14:49:59.505Z,22.60
2023-04-09T14:52:30.504Z,21.37
2023-04-09T14:55:00.557Z,24.67
2023-04-09T14:57:28.988Z,23.00
2023-04-09T14:59:57.364Z,19.87
2023-04-09T15:02:26.019Z,19.17
2023-04-09T15:04:54.657Z,19.77
2023-04-09T15:07:24.970Z,19.53
2023-04-09T15:09:53.584Z,18.17
2023-04-09T15:12:23.331Z,16.83
2023-04-09T15:14:52.381Z,21.03
2023-04-09T15:17:20.772Z,20.30
2023-04-09T15:19:49.653Z,17.27
2023-04-09T15:22:19.231Z,18.80
2023-04-09T15:24:47.655Z,18.20
2023-04-09T15:27:16.169Z,15.93
2023-04-09T15:29:46.168Z,16.57
2023-04-09T15:32:15.933Z,18.10
2023-04-09T15:34:44.887Z,17.77
2023-04-09T15:37:13.301Z,17.93
2023-04-09T15:39:41.734Z,17.13
2023-04-09T15:42:11.672Z,18.23
2023-04-09T15:44:41.946Z,16.53
2023-04-09T15:47:12.268Z,16.03
2023-04-09T15:49:40.907Z,15.00
2023-04-09T15:52:09.424Z,15.87
2023-04-09T15:54:37.869Z,17.53
2023-04-09T15:57:07.134Z,15.73
2023-04-09T15:59:35.885Z,15.90
2023-04-09T16:02:04.978Z,14.03
2023-04-09T16:04:34.831Z,14.27
2023-04-09T16:07:04.456Z,14.77
2023-04-09T16:09:33.204Z,13.13
2023-04-09T16:12:01.654Z,14.80
2023-04-09T16:14:30.394Z,12.00
2023-04-09T16:16:58.862Z,16.83
2023-04-09T16:19:27.386Z,16.33
2023-04-09T16:21:57.684Z,15.13
2023-04-09T16:24:27.177Z,16.23
2023-04-09T16:26:57.017Z,16.63
2023-04-09T16:29:26.379Z,15.87
2023-04-09T16:31:55.149Z,14.60
2023-04-09T16:34:23.988Z,14.67
2023-04-09T16:36:52.342Z,17.23
2023-04-09T16:39:22.107Z,16.80
2023-04-09T16:41:50.792Z,16.00
2023-04-09T16:44:19.407Z,17.43
2023-04-09T16:46:47.891Z,18.20
2023-04-09T16:49:16.451Z,15.03
2023-04-09T16:51:46.179Z,17.33
2023-04-09T16:54:14.667Z,18.23
2023-04-09T16:56:44.560Z,16.07
2023-04-09T16:59:13.624Z,18.03
2023-04-09T17:01:42.178Z,15.30
2023-04-09T17:04:10.755Z,17.43
2023-04-09T17:06:39.605Z,15.33
2023-04-09T17:09:08.092Z,16.03
2023-04-09T17:11:38.042Z,15.47
2023-04-09T17:14:11.592Z,15.03
2023-04-09T17:16:40.027Z,15.90
2023-04-09T17:19:08.962Z,17.17
2023-04-09T17:21:38.021Z,16.27
2023-04-09T17:24:07.870Z,15.70
2023-04-09T17:26:36.603Z,18.23
2023-04-09T17:29:05.279Z,17.00
2023-04-09T17:31:35.140Z,15.00
2023-04-09T17:34:03.592Z,15.60
2023-04-09T17:36:32.583Z,14.83
2023-04-09T17:39:00.998Z,15.53
2023-04-09T17:41:29.485Z,16.07
2023-04-09T17:43:58.181Z,14.83
2023-04-09T17:46:26.798Z,16.60
2023-04-09T17:48:56.599Z,15.47
2023-04-09T17:51:24.994Z,17.10
2023-04-09T17:53:54.827Z,16.60
2023-04-09T17:56:23.713Z,16.43
2023-04-09T17:58:52.349Z,14.70
2023-04-09T18:01:21.162Z,16.90
2023-04-09T18:03:50.136Z,17.23
2023-04-09T18:06:20.176Z,17.80
2023-04-09T18:08:50.322Z,17.00
2023-04-09T18:11:19.291Z,16.57
2023-04-09T18:13:47.868Z,17.50
2023-04-09T18:16:17.629Z,16.80
2023-04-09T18:18:46.305Z,16.77
2023-04-09T18:21:15.255Z,16.97
2023-04-09T18:23:45.285Z,19.20
2023-04-09T18:26:15.296Z,16.83
2023-04-09T18:28:43.682Z,14.97
2023-04-09T18:31:12.968Z,16.47
2023-04-09T18:33:41.559Z,18.30
2023-04-09T18:36:10.590Z,16.87
2023-04-09T18:38:39.789Z,17.30
2023-04-09T18:41:11.395Z,15.23
2023-04-09T18:43:39.875Z,16.30
2023-04-09T18:46:08.469Z,19.13
2023-04-09T18:48:36.898Z,16.47
2023-04-09T18:51:05.609Z,16.10
2023-04-09T18:53:34.049Z,16.77
2023-04-09T18:56:02.497Z,17.80
2023-04-09T18:58:33.664Z,16.60
2023-04-09T19:01:02.508Z,20.37
2023-04-09T19:03:31.298Z,16.37
2023-04-09T19:06:00.151Z,15.07
2023-04-09T19:08:32.402Z,15.93
2023-04-09T19:11:00.931Z,15.37
2023-04-09T19:13:30.672Z,15.33
2023-04-09T19:16:00.709Z,15.50
2023-04-09T19:18:29.170Z,19.50
2023-04-09T19:20:57.680Z,15.23
2023-04-09T19:23:26.252Z,13.63
2023-04-09T19:25:55.291Z,16.67
2023-04-09T19:28:23.854Z,15.17
2023-04-09T19:30:53.927Z,17.17
2023-04-09T19:33:23.812Z,16.27
2023-04-09T19:35:52.420Z,15.43
2023-04-09T19:38:21.410Z,18.77
2023-04-09T19:40:49.763Z,16.77
2023-04-09T19:43:18.302Z,18.47
2023-04-09T19:45:47.009Z,16.37
2023-04-09T19:48:15.952Z,15.73
2023-04-09T19:50:46.215Z,14.83
2023-04-09T19:53:14.585Z,15.57
2023-04-09T19:55:43.191Z,16.17
2023-04-09T19:58:11.776Z,17.47
2023-04-09T20:00:40.379Z,17.10
2023-04-09T20:03:09.310Z,17.67
2023-04-09T20:05:38.346Z,16.93
2023-04-09T20:08:12.385Z,16.70
2023-04-09T20:10:46.470Z,16.63
2023-04-09T20:13:15.035Z,19.47
2023-04-09T20:15:44.302Z,15.83
2023-04-09T20:18:12.769Z,17.37
2023-04-09T20:20:41.536Z,15.27
2023-04-09T20:23:11.323Z,15.17
2023-04-09T20:25:39.885Z,14.90
2023-04-09T20:28:09.899Z,17.60
2023-04-09T20:30:38.505Z,15.73
2023-04-09T20:33:07.030Z,14.40
2023-04-09T20:35:36.611Z,16.07
2023-04-09T20:38:05.092Z,16.17
2023-04-09T20:40:36.641Z,15.20
2023-04-09T20:43:05.304Z,15.20
2023-04-09T20:45:33.860Z,16.03
2023-04-09T20:48:02.552Z,15.10
2023-04-09T20:50:31.989Z,17.03
2023-04-09T20:53:00.459Z,16.47
2023-04-09T20:55:29.184Z,16.23
2023-04-09T20:58:00.359Z,15.83
2023-04-09T21:00:31.604Z,12.97
2023-04-09T21:03:00.168Z,14.57
2023-04-09T21:05:28.851Z,15.17
2023-04-09T21:07:57.196Z,13.87
2023-04-09T21:10:25.717Z,17.23
2023-04-09T21:12:54.455Z,14.70
2023-04-09T21:15:24.297Z,16.07
2023-04-09T21:17:52.780Z,16.00
2023-04-09T21:20:21.370Z,15.43
2023-04-09T21:22:54.266Z,16.67
2023-04-09T21:25:22.926Z,15.97
2023-04-09T21:27:51.892Z,14.90
2023-04-09T21:30:20.829Z,14.37
2023-04-09T21:32:51.721Z,14.63
2023-04-09T21:35:20.302Z,16.20
2023-04-09T21:37:49.005Z,15.97
2023-04-09T21:40:17.917Z,16.30
2023-04-09T21:42:46.420Z,14.70
2023-04-09T21:45:14.757Z,15.43
2023-04-09T21:47:43.493Z,14.10
2023-04-09T21:50:13.537Z,13.50
2023-04-09T21:52:42.015Z,14.40
2023-04-09T21:55:10.945Z,13.83
2023-04-09T21:57:39.371Z,15.30
2023-04-09T22:00:09.408Z,14.77
2023-04-09T22:02:39.260Z,14.67
2023-04-09T22:05:08.617Z,13.50
2023-04-09T22:07:39.866Z,13.53
2023-04-09T22:10:09.240Z,14.03
2023-04-09T22:12:37.637Z,15.87
2023-04-09T22:15:06.535Z,14.63
2023-04-09T22:17:35.012Z,13.37
2023-04-09T22:20:04.928Z,14.20
2023-04-09T22:22:33.698Z,13.70
2023-04-09T22:25:04.571Z,14.67
2023-04-09T22:27:33.094Z,16.20
2023-04-09T22:30:01.565Z,14.77
2023-04-09T22:32:33.304Z,13.80
2023-04-09T22:35:01.980Z,17.80
2023-04-09T22:37:30.816Z,15.10
2023-04-09T22:39:59.340Z,13.93
2023-04-09T22:42:29.137Z,14.40
2023-04-09T22:44:57.580Z,16.47
2023-04-09T22:47:26.549Z,16.00
2023-04-09T22:49:56.160Z,16.73
2023-04-09T22:52:24.671Z,18.93
2023-04-09T22:54:53.499Z,14.83
2023-04-09T22:57:21.922Z,14.03
2023-04-09T22:59:51.637Z,13.30
2023-04-09T23:02:20.777Z,14.13
2023-04-09T23:04:49.436Z,15.83
2023-04-09T23:07:18.361Z,14.20
2023-04-09T23:09:47.282Z,12.53
2023-04-09T23:12:15.692Z,14.90
2023-04-09T23:14:44.170Z,16.27
2023-04-09T23:17:14.178Z,14.77
2023-04-09T23:19:43.507Z,13.63
2023-04-09T23:22:12.223Z,13.97
2023-04-09T23:24:40.968Z,12.40
2023-04-09T23:27:09.457Z,14.37
2023-04-09T23:29:37.992Z,13.33
2023-04-09T23:32:06.513Z,12.83
2023-04-09T23:34:36.380Z,14.00
2023-04-09T23:37:04.796Z,13.83
2023-04-09T23:39:34.395Z,13.37
2023-04-09T23:42:03.144Z,12.13
2023-04-09T23:44:31.750Z,11.23
2023-04-09T23:47:01.470Z,12.67
2023-04-09T23:49:30.648Z,11.93
2023-04-09T23:52:00.863Z,11.83
2023-04-09T23:54:29.422Z,13.37
2023-04-09T23:56:58.670Z,12.53
2023-04-09T23:59:27.390Z,10.80
